Weather observations for the past three days for
Price - Carbon County Regional Airport
Metric (Imperial)
Date Time (mdt) Wind (kph) Vis. (km) Weather Sky Cond. Temperature (ºC) Relative Humidity Wind Chill (°C) Heat Index (°C) Pressure Precipitation (cm)
Air Dwpt 6 hour altimeter (cm) sea level (mb) 1 hr 3 hr 6 hr
Max. Min.
02 21:53 E 11 16.09 Fair CLR 13.9 -11.7 16% 76.45 1015.1
02 20:53 E 11 16.09 Fair CLR 14.4 -10.6 17% 76.4 1015.1
02 19:53 SE 13 16.09 Fair CLR 17.2 -10.6 14% 76.38 1015.0
02 18:53 SE 17 16.09 Fair CLR 18.9 -11.7 11% 76.38 1015.2
02 17:53 E 11 G 30 16.09 Fair CLR 19.4 -12.2 20.6 16.7 11% 76.4 1015.3
02 16:53 S 15 16.09 Fair CLR 20.6 -11.7 10% 76.45 1015.8
02 15:53 Calm 16.09 Fair CLR 19.4 -11.1 12% 76.53 1016.5
02 14:53 Calm 16.09 Fair CLR 19.4 -11.7 11% 76.58 1017.9
02 13:53 Calm 16.09 Fair CLR 17.8 -11.7 12% 76.66 1019.0
02 12:53 SE 17 16.09 Fair CLR 17.8 -11.7 12% 76.71 1019.9
02 11:53 S 17 16.09 Fair CLR 17.2 -11.1 17.2 5.6 13% 76.73 1020.1
02 10:53 Vrbl 6 16.09 Fair CLR 15.6 -12.2 14% 76.76 1020.9
02 09:53 S 7 16.09 Fair CLR 14.4 -8.9 19% 76.73 1020.8
02 08:53 Calm 16.09 Fair CLR 12.2 -8.9 22% 76.73 1020.5
02 07:53 Calm 16.09 Fair CLR 7.8 -7.8 33% 76.73 1020.8
02 06:53 NW 7 16.09 Fair CLR 5.6 -9.4 33% 4 76.68 1020.2
02 05:53 Calm 16.09 Fair CLR 6.1 -10 7.2 3.3 31% 76.66 1019.5
02 04:53 NW 9 16.09 Fair CLR 4.4 -9.4 36% 2 76.66 1019.8
02 03:53 N 15 16.09 Fair CLR 6.7 -10 30% 4 76.66 1019.4
02 02:53 N 19 16.09 Fair CLR 5.6 -10 32% 2 76.63 1019.6
02 01:53 N 17 16.09 Fair CLR 6.1 -9.4 32% 3 76.66 1019.6
02 00:53 N 19 16.09 Fair CLR 5.6 -8.9 35% 2 76.66 1020.4
01 23:53 N 17 16.09 Fair CLR 7.2 -9.4 17.2 6.1 30% 5 76.63 1020.1
01 22:53 N 11 16.09 Fair CLR 6.7 -9.4 31% 5 76.63 1020.2
01 21:53 N 17 16.09 Fair CLR 7.2 -10 29% 5 76.58 1019.9
01 20:53 NE 13 16.09 Fair CLR 10.6 -11.7 20% 76.53 1018.5
01 19:53 NE 20 16.09 Fair CLR 14.4 -13.9 13% 76.48 1017.2
01 18:53 E 19 G 35 16.09 Fair CLR 16.1 -13.9 11% 76.43 1017.2
01 17:53 NE 17 G 30 16.09 Fair CLR 17.2 -13.9 17.8 12.8 11% 76.43 1016.9
01 16:53 E 13 G 33 16.09 Fair CLR 17.2 -14.4 10% 76.4 1016.6
01 15:53 E 19 G 37 16.09 Fair CLR 16.7 -15.6 10% 76.45 1017.0
01 14:53 E 20 G 33 16.09 Fair CLR 16.1 -15.6 10% 76.5 1017.5
01 13:53 Vrbl 11 G 33 16.09 Fair CLR 15.6 -12.2 14% 76.5 1017.7
01 12:53 E 19 G 35 16.09 Fair CLR 14.4 -11.1 16% 76.56 1018.1
01 11:53 NE 13 G 31 16.09 Fair CLR 12.8 -10.6 13.3 2.8 19% 76.58 1019.4
01 10:53 E 19 G 39 16.09 Fair CLR 11.7 -9.4 22% 76.61 1019.6
01 09:53 NE 24 G 39 16.09 Fair CLR 10.6 -8.9 25% 76.61 1019.6
01 08:53 E 11 16.09 Fair CLR 8.9 -7.8 30% 7 76.61 1020.0
01 07:53 N 19 16.09 Fair CLR 7.2 -6.1 39% 4 76.58 1019.8
01 06:53 N 20 16.09 Fair CLR 3.9 -6.1 48% 0 76.53 1019.9
01 05:53 N 17 16.09 Fair CLR 2.8 -6.1 7.8 2.8 52% -1 76.5 1019.4
01 04:53 N 9 16.09 Fair CLR 3.9 -6.1 48% 2 76.48 1018.4
01 03:53 N 11 16.09 Fair CLR 4.4 -6.1 47% 2 76.48 1017.5
01 02:53 N 9 16.09 Fair CLR 5.6 -5.6 45% 4 76.48 1017.6
01 01:53 Calm 16.09 Fair CLR 6.1 -5.6 43% 76.48 1017.6
01 00:53 Vrbl 6 16.09 Fair CLR 7.2 -4.4 44% 76.48 1017.7
30 23:53 N 11 16.09 Fair CLR 7.2 -3.3 13.3 6.7 48% 5 76.45 1017.4
30 22:53 N 20 16.09 Mostly Cloudy BKN080 7.8 -3.3 46% 5 76.43 1017.0
30 21:53 N 26 G 39 16.09 Overcast OVC080 8.9 -3.3 42% 6 76.43 1016.8
30 20:53 N 22 G 43 16.09 Partly Cloudy SCT090 8.3 -2.2 48% 5 76.33 1016.2
30 19:53 NE 26 16.09 Mostly Cloudy FEW041 SCT065 BKN110 10.6 -2.2 41% 76.3 1015.6
30 18:53 N 39 G 50 16.09 A Few Clouds and Breezy FEW090 11.7 -2.2 38% 76.25 1015.4
30 17:53 N 20 16.09 Overcast FEW070 OVC090 12.8 -4.4 16.7 12.8 30% 76.23 1015.0
30 16:53 E 22 G 43 16.09 Overcast OVC095 14.4 -5 26% 76.17 1014.1
30 15:53 E 20 G 30 16.09 Partly Cloudy SCT090 SCT110 16.1 -6.1 21% 76.17 1013.1
30 14:53 NW 17 G 31 16.09 A Few Clouds FEW075 FEW090 15.6 -8.3 19% 76.23 1014.1
30 13:53 Vrbl 7 16.09 Partly Cloudy SCT110 15 -8.3 19% 76.25 1014.6
30 12:53 SE 7 16.09 Overcast OVC085 13.3 -7.2 24% 76.3 1015.6
30 11:53 NE 9 16.09 Partly Cloudy SCT080 13.3 -6.1 13.9 3.3 26% 76.35 1015.9
30 10:53 Vrbl 11 G 26 16.09 Fair CLR 13.3 -6.1 26% 76.35 1016.5
30 09:53 N 17 G 28 16.09 Fair CLR 11.7 -5.6 30% 76.4 1016.6
30 08:53 N 22 G 35 16.09 Fair CLR 10.6 -5.6 32% 76.4 1016.5
30 07:53 N 15 16.09 Fair CLR 8.3 -5 39% 6 76.4 1016.6
30 06:53 NW 13 16.09 Fair CLR 4.4 -5 51% 2 76.35 1016.6
30 05:53 NW 7 16.09 Fair CLR 3.3 -5.6 6.7 2.8 52% 2 76.35 1016.3
30 04:53 N 19 16.09 Fair CLR 3.3 -5.6 52% -1 76.38 1016.8
30 03:53 NW 17 16.09 Fair CLR 6.1 -6.1 42% 3 76.38 1016.0
30 02:53 N 11 16.09 Fair CLR 4.4 -6.1 47% 2 76.4 1016.8
30 01:53 NW 13 16.09 Fair CLR 5 -6.1 45% 2 76.43 1016.9
30 00:53 N 7 16.09 Fair CLR 5 -6.1 45% 4 76.43 1017.7
29 23:53 N 9 16.09 Fair CLR 6.1 -6.7 16.1 5 40% 4 76.45 1017.4
29 22:53 N 9 16.09 Fair CLR 5 -6.1 45% 3 76.45 1018.4
Date Time (mdt) Wind (kph) Vis. (km) Weather Sky Cond. Air Dwpt Max. Min. Relative Humidity Wind Chill (°C) Heat Index (°C) altimeter (cm) sea level (mb) 1 hr 3 hr 6 hr
6 hour
Temperature (ºC) Pressure Precipitation (cm)